sensor_id;sensor_type;location;lat;lon;timestamp;temperature;humidity
6102;DHT22;3081;50.584;7.032;2023-08-01T00:00:53;16.50;99.90
6102;DHT22;3081;50.584;7.032;2023-08-01T00:03:21;16.50;99.90
6102;DHT22;3081;50.584;7.032;2023-08-01T00:05:50;16.50;99.90
6102;DHT22;3081;50.584;7.032;2023-08-01T00:08:17;16.40;99.90
6102;DHT22;3081;50.584;7.032;2023-08-01T00:10:43;16.40;99.90
6102;DHT22;3081;50.584;7.032;2023-08-01T00:13:10;16.40;99.90
6102;DHT22;3081;50.584;7.032;2023-08-01T00:15:37;16.30;99.90
6102;DHT22;3081;50.584;7.032;2023-08-01T00:18:04;16.30;99.90
6102;DHT22;3081;50.584;7.032;2023-08-01T00:20:31;16.30;99.90
6102;DHT22;3081;50.584;7.032;2023-08-01T00:22:59;16.30;99.90
6102;DHT22;3081;50.584;7.032;2023-08-01T00:25:26;16.30;99.90
6102;DHT22;3081;50.584;7.032;2023-08-01T00:27:53;16.30;99.90
6102;DHT22;3081;50.584;7.032;2023-08-01T00:30:20;16.30;99.90
6102;DHT22;3081;50.584;7.032;2023-08-01T00:32:47;16.40;99.90
6102;DHT22;3081;50.584;7.032;2023-08-01T00:35:14;16.40;99.90
6102;DHT22;3081;50.584;7.032;2023-08-01T00:37:41;16.40;99.90
6102;DHT22;3081;50.584;7.032;2023-08-01T00:40:10;16.40;99.90
6102;DHT22;3081;50.584;7.032;2023-08-01T00:42:38;16.40;99.90
6102;DHT22;3081;50.584;7.032;2023-08-01T00:45:06;16.50;99.90
6102;DHT22;3081;50.584;7.032;2023-08-01T00:47:33;16.50;99.90
6102;DHT22;3081;50.584;7.032;2023-08-01T00:50:01;16.50;99.90
6102;DHT22;3081;50.584;7.032;2023-08-01T00:52:28;16.60;99.90
6102;DHT22;3081;50.584;7.032;2023-08-01T00:54:55;16.60;99.90
6102;DHT22;3081;50.584;7.032;2023-08-01T00:57:23;16.60;99.90
6102;DHT22;3081;50.584;7.032;2023-08-01T00:59:50;16.60;99.90
6102;DHT22;3081;50.584;7.032;2023-08-01T01:02:18;16.60;99.90
6102;DHT22;3081;50.584;7.032;2023-08-01T01:04:44;16.70;99.90
6102;DHT22;3081;50.584;7.032;2023-08-01T01:07:12;16.70;99.90
6102;DHT22;3081;50.584;7.032;2023-08-01T01:09:39;16.70;99.90
6102;DHT22;3081;50.584;7.032;2023-08-01T01:12:06;16.70;99.90
6102;DHT22;3081;50.584;7.032;2023-08-01T01:14:35;16.80;99.90
6102;DHT22;3081;50.584;7.032;2023-08-01T01:17:02;16.80;99.90
6102;DHT22;3081;50.584;7.032;2023-08-01T01:19:29;16.80;99.90
6102;DHT22;3081;50.584;7.032;2023-08-01T01:21:57;16.80;99.90
6102;DHT22;3081;50.584;7.032;2023-08-01T01:24:25;16.70;99.90
6102;DHT22;3081;50.584;7.032;2023-08-01T01:26:54;16.80;99.90
6102;DHT22;3081;50.584;7.032;2023-08-01T01:29:22;16.70;99.90
6102;DHT22;3081;50.584;7.032;2023-08-01T01:31:50;16.70;99.90
6102;DHT22;3081;50.584;7.032;2023-08-01T01:34:17;16.60;99.90
6102;DHT22;3081;50.584;7.032;2023-08-01T01:36:44;16.60;99.90
6102;DHT22;3081;50.584;7.032;2023-08-01T01:39:12;16.60;99.90
6102;DHT22;3081;50.584;7.032;2023-08-01T01:41:39;16.60;99.90
6102;DHT22;3081;50.584;7.032;2023-08-01T01:44:06;16.70;99.90
6102;DHT22;3081;50.584;7.032;2023-08-01T01:46:33;16.70;99.90
6102;DHT22;3081;50.584;7.032;2023-08-01T01:49:00;16.70;99.90
6102;DHT22;3081;50.584;7.032;2023-08-01T01:51:28;16.70;99.90
6102;DHT22;3081;50.584;7.032;2023-08-01T01:53:55;16.60;99.90
6102;DHT22;3081;50.584;7.032;2023-08-01T01:56:24;16.60;99.90
6102;DHT22;3081;50.584;7.032;2023-08-01T01:58:50;16.60;99.90
6102;DHT22;3081;50.584;7.032;2023-08-01T02:01:17;16.60;99.90
6102;DHT22;3081;50.584;7.032;2023-08-01T02:03:44;16.60;99.90
6102;DHT22;3081;50.584;7.032;2023-08-01T02:06:11;16.70;99.90
6102;DHT22;3081;50.584;7.032;2023-08-01T02:08:38;16.70;99.90
6102;DHT22;3081;50.584;7.032;2023-08-01T02:11:05;16.70;99.90
6102;DHT22;3081;50.584;7.032;2023-08-01T02:13:33;16.70;99.90
6102;DHT22;3081;50.584;7.032;2023-08-01T02:16:00;16.80;99.90
6102;DHT22;3081;50.584;7.032;2023-08-01T02:18:27;16.80;99.90
6102;DHT22;3081;50.584;7.032;2023-08-01T02:20:54;16.80;99.90
6102;DHT22;3081;50.584;7.032;2023-08-01T02:23:21;16.80;99.90
6102;DHT22;3081;50.584;7.032;2023-08-01T02:25:48;16.80;99.90
6102;DHT22;3081;50.584;7.032;2023-08-01T02:28:14;16.80;99.90
6102;DHT22;3081;50.584;7.032;2023-08-01T02:30:43;16.80;99.90
6102;DHT22;3081;50.584;7.032;2023-08-01T02:33:10;16.80;99.90
6102;DHT22;3081;50.584;7.032;2023-08-01T02:35:37;16.90;99.90
6102;DHT22;3081;50.584;7.032;2023-08-01T02:38:04;16.90;99.90
6102;DHT22;3081;50.584;7.032;2023-08-01T02:40:31;16.80;99.90
6102;DHT22;3081;50.584;7.032;2023-08-01T02:42:58;16.80;99.90
6102;DHT22;3081;50.584;7.032;2023-08-01T02:45:25;16.80;99.90
6102;DHT22;3081;50.584;7.032;2023-08-01T02:47:53;16.80;99.90
6102;DHT22;3081;50.584;7.032;2023-08-01T02:50:20;16.80;99.90
6102;DHT22;3081;50.584;7.032;2023-08-01T02:52:47;16.70;99.90
6102;DHT22;3081;50.584;7.032;2023-08-01T02:55:14;16.80;99.90
6102;DHT22;3081;50.584;7.032;2023-08-01T02:57:41;16.70;99.90
6102;DHT22;3081;50.584;7.032;2023-08-01T03:00:08;16.80;99.90
6102;DHT22;3081;50.584;7.032;2023-08-01T03:02:37;16.80;99.90
6102;DHT22;3081;50.584;7.032;2023-08-01T03:05:08;16.90;99.90
6102;DHT22;3081;50.584;7.032;2023-08-01T03:07:35;16.80;99.90
6102;DHT22;3081;50.584;7.032;2023-08-01T03:10:02;16.80;99.90
6102;DHT22;3081;50.584;7.032;2023-08-01T03:12:29;16.80;99.90
6102;DHT22;3081;50.584;7.032;2023-08-01T03:14:56;16.80;99.90
6102;DHT22;3081;50.584;7.032;2023-08-01T03:17:23;16.70;99.90
6102;DHT22;3081;50.584;7.032;2023-08-01T03:19:50;16.70;99.90
6102;DHT22;3081;50.584;7.032;2023-08-01T03:22:18;16.50;99.90
6102;DHT22;3081;50.584;7.032;2023-08-01T03:24:45;16.30;99.90
6102;DHT22;3081;50.584;7.032;2023-08-01T03:27:12;16.20;99.90
6102;DHT22;3081;50.584;7.032;2023-08-01T03:29:39;16.20;99.90
6102;DHT22;3081;50.584;7.032;2023-08-01T03:32:06;16.10;99.90
6102;DHT22;3081;50.584;7.032;2023-08-01T03:34:33;16.00;99.90
6102;DHT22;3081;50.584;7.032;2023-08-01T03:37:00;16.00;99.90
6102;DHT22;3081;50.584;7.032;2023-08-01T03:39:29;16.00;99.90
6102;DHT22;3081;50.584;7.032;2023-08-01T03:41:55;15.80;99.90
6102;DHT22;3081;50.584;7.032;2023-08-01T03:44:22;15.80;99.90
6102;DHT22;3081;50.584;7.032;2023-08-01T03:46:50;15.70;99.90
6102;DHT22;3081;50.584;7.032;2023-08-01T03:49:16;15.60;99.90
6102;DHT22;3081;50.584;7.032;2023-08-01T03:51:43;15.60;99.90
6102;DHT22;3081;50.584;7.032;2023-08-01T03:54:10;15.50;99.90
6102;DHT22;3081;50.584;7.032;2023-08-01T03:56:39;15.50;99.90
6102;DHT22;3081;50.584;7.032;2023-08-01T03:59:08;15.50;99.90
6102;DHT22;3081;50.584;7.032;2023-08-01T04:01:35;15.40;99.90
6102;DHT22;3081;50.584;7.032;2023-08-01T04:04:02;15.40;99.90
6102;DHT22;3081;50.584;7.032;2023-08-01T04:06:29;15.40;99.90
6102;DHT22;3081;50.584;7.032;2023-08-01T04:08:56;15.40;99.90
6102;DHT22;3081;50.584;7.032;2023-08-01T04:11:25;15.40;99.90
6102;DHT22;3081;50.584;7.032;2023-08-01T04:13:53;15.40;99.90
6102;DHT22;3081;50.584;7.032;2023-08-01T04:16:21;15.30;99.90
6102;DHT22;3081;50.584;7.032;2023-08-01T04:18:48;15.40;99.90
6102;DHT22;3081;50.584;7.032;2023-08-01T04:21:15;15.40;99.90
6102;DHT22;3081;50.584;7.032;2023-08-01T04:23:42;15.40;99.90
6102;DHT22;3081;50.584;7.032;2023-08-01T04:26:09;15.40;99.90
6102;DHT22;3081;50.584;7.032;2023-08-01T04:28:36;15.40;99.90
6102;DHT22;3081;50.584;7.032;2023-08-01T04:31:04;15.40;99.90
6102;DHT22;3081;50.584;7.032;2023-08-01T04:33:31;15.40;99.90
6102;DHT22;3081;50.584;7.032;2023-08-01T04:35:58;15.40;99.90
6102;DHT22;3081;50.584;7.032;2023-08-01T04:38:25;15.40;99.90
6102;DHT22;3081;50.584;7.032;2023-08-01T04:40:52;15.40;99.90
6102;DHT22;3081;50.584;7.032;2023-08-01T04:43:19;15.40;99.90
6102;DHT22;3081;50.584;7.032;2023-08-01T04:45:45;15.50;99.90
6102;DHT22;3081;50.584;7.032;2023-08-01T04:48:14;15.50;99.90
6102;DHT22;3081;50.584;7.032;2023-08-01T04:50:41;15.50;99.90
6102;DHT22;3081;50.584;7.032;2023-08-01T04:53:08;15.50;99.90
6102;DHT22;3081;50.584;7.032;2023-08-01T04:55:34;15.50;99.90
6102;DHT22;3081;50.584;7.032;2023-08-01T04:58:01;15.50;99.90
6102;DHT22;3081;50.584;7.032;2023-08-01T05:00:28;15.50;99.90
6102;DHT22;3081;50.584;7.032;2023-08-01T05:02:55;15.60;99.90
6102;DHT22;3081;50.584;7.032;2023-08-01T05:05:23;15.60;99.90
6102;DHT22;3081;50.584;7.032;2023-08-01T05:07:50;15.70;99.90
6102;DHT22;3081;50.584;7.032;2023-08-01T05:10:17;15.70;99.90
6102;DHT22;3081;50.584;7.032;2023-08-01T05:12:44;15.80;99.90
6102;DHT22;3081;50.584;7.032;2023-08-01T05:15:11;15.80;99.90
6102;DHT22;3081;50.584;7.032;2023-08-01T05:17:38;15.80;99.90
6102;DHT22;3081;50.584;7.032;2023-08-01T05:20:06;15.80;99.90
6102;DHT22;3081;50.584;7.032;2023-08-01T05:22:35;15.80;99.90
6102;DHT22;3081;50.584;7.032;2023-08-01T05:25:02;15.90;99.90
6102;DHT22;3081;50.584;7.032;2023-08-01T05:27:30;15.80;99.90
6102;DHT22;3081;50.584;7.032;2023-08-01T05:29:57;15.80;99.90
6102;DHT22;3081;50.584;7.032;2023-08-01T05:32:24;15.80;99.90
6102;DHT22;3081;50.584;7.032;2023-08-01T05:34:51;15.70;99.90
6102;DHT22;3081;50.584;7.032;2023-08-01T05:37:18;15.80;99.90
6102;DHT22;3081;50.584;7.032;2023-08-01T05:39:46;15.70;99.90
6102;DHT22;3081;50.584;7.032;2023-08-01T05:42:13;15.80;99.90
6102;DHT22;3081;50.584;7.032;2023-08-01T05:44:40;15.70;99.90
6102;DHT22;3081;50.584;7.032;2023-08-01T05:47:06;15.70;99.90
6102;DHT22;3081;50.584;7.032;2023-08-01T05:49:33;15.70;99.90
6102;DHT22;3081;50.584;7.032;2023-08-01T05:52:00;15.70;99.90
6102;DHT22;3081;50.584;7.032;2023-08-01T05:54:27;15.70;99.90
6102;DHT22;3081;50.584;7.032;2023-08-01T05:56:55;15.70;99.90
6102;DHT22;3081;50.584;7.032;2023-08-01T05:59:22;15.70;99.90
6102;DHT22;3081;50.584;7.032;2023-08-01T06:01:49;15.70;99.90
6102;DHT22;3081;50.584;7.032;2023-08-01T06:04:16;15.80;99.90
6102;DHT22;3081;50.584;7.032;2023-08-01T06:06:43;15.90;99.90
6102;DHT22;3081;50.584;7.032;2023-08-01T06:09:10;16.10;99.90
6102;DHT22;3081;50.584;7.032;2023-08-01T06:11:37;16.20;99.90
6102;DHT22;3081;50.584;7.032;2023-08-01T06:14:05;16.40;99.90
6102;DHT22;3081;50.584;7.032;2023-08-01T06:16:32;16.50;99.90
6102;DHT22;3081;50.584;7.032;2023-08-01T06:18:59;16.50;99.90
6102;DHT22;3081;50.584;7.032;2023-08-01T06:21:26;16.30;99.90
6102;DHT22;3081;50.584;7.032;2023-08-01T06:23:53;16.30;99.90
6102;DHT22;3081;50.584;7.032;2023-08-01T06:26:20;16.20;99.90
6102;DHT22;3081;50.584;7.032;2023-08-01T06:28:47;16.20;99.90
6102;DHT22;3081;50.584;7.032;2023-08-01T06:31:15;16.20;99.90
6102;DHT22;3081;50.584;7.032;2023-08-01T06:33:42;16.20;99.90
6102;DHT22;3081;50.584;7.032;2023-08-01T06:36:09;16.20;99.90
6102;DHT22;3081;50.584;7.032;2023-08-01T06:38:36;16.30;99.90
6102;DHT22;3081;50.584;7.032;2023-08-01T06:41:03;16.40;99.90
6102;DHT22;3081;50.584;7.032;2023-08-01T06:43:29;16.40;99.90
6102;DHT22;3081;50.584;7.032;2023-08-01T06:45:56;16.60;99.90
6102;DHT22;3081;50.584;7.032;2023-08-01T06:48:25;16.70;99.90
6102;DHT22;3081;50.584;7.032;2023-08-01T06:50:52;16.80;99.90
6102;DHT22;3081;50.584;7.032;2023-08-01T06:53:19;16.90;99.90
6102;DHT22;3081;50.584;7.032;2023-08-01T06:55:46;17.10;99.90
6102;DHT22;3081;50.584;7.032;2023-08-01T06:58:13;17.40;99.90
6102;DHT22;3081;50.584;7.032;2023-08-01T07:00:40;17.60;99.90
6102;DHT22;3081;50.584;7.032;2023-08-01T07:03:07;17.70;99.90
6102;DHT22;3081;50.584;7.032;2023-08-01T07:05:36;17.70;99.90
6102;DHT22;3081;50.584;7.032;2023-08-01T07:08:03;17.60;99.90
6102;DHT22;3081;50.584;7.032;2023-08-01T07:10:34;17.70;99.90
6102;DHT22;3081;50.584;7.032;2023-08-01T07:13:01;17.90;99.90
6102;DHT22;3081;50.584;7.032;2023-08-01T07:15:29;17.90;99.90
6102;DHT22;3081;50.584;7.032;2023-08-01T07:17:56;18.00;99.90
6102;DHT22;3081;50.584;7.032;2023-08-01T07:20:23;18.10;99.90
6102;DHT22;3081;50.584;7.032;2023-08-01T07:22:52;18.00;99.90
6102;DHT22;3081;50.584;7.032;2023-08-01T07:25:19;18.00;99.90
6102;DHT22;3081;50.584;7.032;2023-08-01T07:27:46;18.00;99.90
6102;DHT22;3081;50.584;7.032;2023-08-01T07:30:13;18.20;99.90
6102;DHT22;3081;50.584;7.032;2023-08-01T07:32:40;18.20;99.90
6102;DHT22;3081;50.584;7.032;2023-08-01T07:35:09;18.20;99.90
6102;DHT22;3081;50.584;7.032;2023-08-01T07:37:36;18.10;99.90
6102;DHT22;3081;50.584;7.032;2023-08-01T07:40:06;18.10;99.90
6102;DHT22;3081;50.584;7.032;2023-08-01T07:42:33;18.20;99.90
6102;DHT22;3081;50.584;7.032;2023-08-01T07:45:00;18.20;99.90
6102;DHT22;3081;50.584;7.032;2023-08-01T07:47:27;18.20;99.90
6102;DHT22;3081;50.584;7.032;2023-08-01T07:49:54;18.10;99.90
6102;DHT22;3081;50.584;7.032;2023-08-01T07:52:21;18.30;99.90
6102;DHT22;3081;50.584;7.032;2023-08-01T07:54:48;18.50;99.90
6102;DHT22;3081;50.584;7.032;2023-08-01T07:57:16;18.70;99.90
6102;DHT22;3081;50.584;7.032;2023-08-01T07:59:43;18.70;99.90
6102;DHT22;3081;50.584;7.032;2023-08-01T08:02:10;18.70;99.90
6102;DHT22;3081;50.584;7.032;2023-08-01T08:04:37;18.60;99.90
6102;DHT22;3081;50.584;7.032;2023-08-01T08:07:04;18.70;99.90
6102;DHT22;3081;50.584;7.032;2023-08-01T08:09:31;18.70;99.90
6102;DHT22;3081;50.584;7.032;2023-08-01T08:11:58;18.80;99.90
6102;DHT22;3081;50.584;7.032;2023-08-01T08:14:26;18.80;99.90
6102;DHT22;3081;50.584;7.032;2023-08-01T08:16:53;18.80;99.90
6102;DHT22;3081;50.584;7.032;2023-08-01T08:19:20;18.50;99.90
6102;DHT22;3081;50.584;7.032;2023-08-01T08:21:49;18.40;99.90
6102;DHT22;3081;50.584;7.032;2023-08-01T08:24:16;18.10;99.90
6102;DHT22;3081;50.584;7.032;2023-08-01T08:26:43;18.00;99.90
6102;DHT22;3081;50.584;7.032;2023-08-01T08:29:11;18.00;99.90
6102;DHT22;3081;50.584;7.032;2023-08-01T08:31:39;18.10;99.90
6102;DHT22;3081;50.584;7.032;2023-08-01T08:34:06;18.30;99.90
6102;DHT22;3081;50.584;7.032;2023-08-01T08:36:33;18.50;99.90
6102;DHT22;3081;50.584;7.032;2023-08-01T08:39:00;18.80;99.90
6102;DHT22;3081;50.584;7.032;2023-08-01T08:41:30;19.10;99.90
6102;DHT22;3081;50.584;7.032;2023-08-01T08:44:01;19.20;99.90
6102;DHT22;3081;50.584;7.032;2023-08-01T08:46:37;19.00;99.90
6102;DHT22;3081;50.584;7.032;2023-08-01T08:49:08;18.90;99.90
6102;DHT22;3081;50.584;7.032;2023-08-01T08:51:36;19.20;99.90
6102;DHT22;3081;50.584;7.032;2023-08-01T08:54:05;19.40;99.90
6102;DHT22;3081;50.584;7.032;2023-08-01T08:56:33;19.50;99.90
6102;DHT22;3081;50.584;7.032;2023-08-01T08:59:01;19.30;99.90
6102;DHT22;3081;50.584;7.032;2023-08-01T09:01:28;19.00;99.90
6102;DHT22;3081;50.584;7.032;2023-08-01T09:03:56;18.90;99.90
6102;DHT22;3081;50.584;7.032;2023-08-01T09:06:29;18.80;99.90
6102;DHT22;3081;50.584;7.032;2023-08-01T09:09:02;18.90;99.90
6102;DHT22;3081;50.584;7.032;2023-08-01T09:11:38;19.00;99.90
6102;DHT22;3081;50.584;7.032;2023-08-01T09:14:05;19.10;99.90
6102;DHT22;3081;50.584;7.032;2023-08-01T09:16:33;19.30;99.90
6102;DHT22;3081;50.584;7.032;2023-08-01T09:19:00;19.60;99.90
6102;DHT22;3081;50.584;7.032;2023-08-01T09:21:31;19.90;99.90
6102;DHT22;3081;50.584;7.032;2023-08-01T09:24:07;20.10;99.90
6102;DHT22;3081;50.584;7.032;2023-08-01T09:26:34;20.50;99.90
6102;DHT22;3081;50.584;7.032;2023-08-01T09:29:01;20.70;99.90
6102;DHT22;3081;50.584;7.032;2023-08-01T09:31:29;20.60;99.90
6102;DHT22;3081;50.584;7.032;2023-08-01T09:33:56;20.70;99.90
6102;DHT22;3081;50.584;7.032;2023-08-01T09:36:23;20.40;99.90
6102;DHT22;3081;50.584;7.032;2023-08-01T09:38:58;20.10;99.90
6102;DHT22;3081;50.584;7.032;2023-08-01T09:41:25;20.10;99.90
6102;DHT22;3081;50.584;7.032;2023-08-01T09:43:52;20.60;99.90
6102;DHT22;3081;50.584;7.032;2023-08-01T09:46:19;21.60;99.90
6102;DHT22;3081;50.584;7.032;2023-08-01T09:48:46;22.60;99.90
6102;DHT22;3081;50.584;7.032;2023-08-01T09:51:14;23.50;99.90
6102;DHT22;3081;50.584;7.032;2023-08-01T09:53:49;23.90;99.90
6102;DHT22;3081;50.584;7.032;2023-08-01T09:56:18;23.60;99.90
6102;DHT22;3081;50.584;7.032;2023-08-01T09:58:47;23.20;99.90
6102;DHT22;3081;50.584;7.032;2023-08-01T10:01:15;22.60;99.90
6102;DHT22;3081;50.584;7.032;2023-08-01T10:03:45;21.90;99.90
6102;DHT22;3081;50.584;7.032;2023-08-01T10:06:16;20.40;99.90
6102;DHT22;3081;50.584;7.032;2023-08-01T10:08:45;19.00;99.90
6102;DHT22;3081;50.584;7.032;2023-08-01T10:11:16;18.20;99.90
6102;DHT22;3081;50.584;7.032;2023-08-01T10:13:45;18.40;99.90
6102;DHT22;3081;50.584;7.032;2023-08-01T10:16:12;19.10;99.90
6102;DHT22;3081;50.584;7.032;2023-08-01T10:18:40;19.90;99.90
6102;DHT22;3081;50.584;7.032;2023-08-01T10:21:08;20.40;99.90
6102;DHT22;3081;50.584;7.032;2023-08-01T10:23:37;21.00;99.90
6102;DHT22;3081;50.584;7.032;2023-08-01T10:26:07;21.80;99.90
6102;DHT22;3081;50.584;7.032;2023-08-01T10:28:35;22.80;99.90
6102;DHT22;3081;50.584;7.032;2023-08-01T10:31:11;23.00;99.90
6102;DHT22;3081;50.584;7.032;2023-08-01T10:33:38;23.00;99.90
6102;DHT22;3081;50.584;7.032;2023-08-01T10:36:15;23.00;99.90
6102;DHT22;3081;50.584;7.032;2023-08-01T10:38:50;22.90;99.90
6102;DHT22;3081;50.584;7.032;2023-08-01T10:41:22;22.60;99.90
6102;DHT22;3081;50.584;7.032;2023-08-01T10:43:48;22.40;99.90
6102;DHT22;3081;50.584;7.032;2023-08-01T10:46:17;22.10;99.90
6102;DHT22;3081;50.584;7.032;2023-08-01T10:48:51;22.00;99.90
6102;DHT22;3081;50.584;7.032;2023-08-01T10:51:19;22.30;99.90
6102;DHT22;3081;50.584;7.032;2023-08-01T10:53:46;22.70;99.90
6102;DHT22;3081;50.584;7.032;2023-08-01T10:56:17;23.10;99.90
6102;DHT22;3081;50.584;7.032;2023-08-01T10:58:45;23.70;99.90
6102;DHT22;3081;50.584;7.032;2023-08-01T11:01:12;24.10;99.90
6102;DHT22;3081;50.584;7.032;2023-08-01T11:03:40;24.50;99.90
6102;DHT22;3081;50.584;7.032;2023-08-01T11:06:08;24.60;99.90
6102;DHT22;3081;50.584;7.032;2023-08-01T11:08:36;25.00;99.90
6102;DHT22;3081;50.584;7.032;2023-08-01T11:11:05;24.70;99.90
6102;DHT22;3081;50.584;7.032;2023-08-01T11:13:32;24.30;99.90
6102;DHT22;3081;50.584;7.032;2023-08-01T11:16:01;24.40;99.90
6102;DHT22;3081;50.584;7.032;2023-08-01T11:18:29;25.10;99.90
6102;DHT22;3081;50.584;7.032;2023-08-01T11:20:57;25.50;99.90
6102;DHT22;3081;50.584;7.032;2023-08-01T11:23:28;24.90;99.90
6102;DHT22;3081;50.584;7.032;2023-08-01T11:25:56;24.00;99.90
6102;DHT22;3081;50.584;7.032;2023-08-01T11:28:23;23.50;99.90
6102;DHT22;3081;50.584;7.032;2023-08-01T11:30:50;23.50;99.90
6102;DHT22;3081;50.584;7.032;2023-08-01T11:33:18;23.30;99.90
6102;DHT22;3081;50.584;7.032;2023-08-01T11:35:49;23.30;99.90
6102;DHT22;3081;50.584;7.032;2023-08-01T11:38:18;23.00;99.90
6102;DHT22;3081;50.584;7.032;2023-08-01T11:40:45;22.80;99.90
6102;DHT22;3081;50.584;7.032;2023-08-01T11:43:14;22.40;99.90
6102;DHT22;3081;50.584;7.032;2023-08-01T11:45:51;22.00;99.90
6102;DHT22;3081;50.584;7.032;2023-08-01T11:48:21;21.50;99.90
6102;DHT22;3081;50.584;7.032;2023-08-01T11:50:48;20.80;99.90
6102;DHT22;3081;50.584;7.032;2023-08-01T11:53:20;20.00;99.90
6102;DHT22;3081;50.584;7.032;2023-08-01T11:55:48;19.70;99.90
6102;DHT22;3081;50.584;7.032;2023-08-01T11:58:15;19.60;99.90
6102;DHT22;3081;50.584;7.032;2023-08-01T12:00:42;19.20;99.90
6102;DHT22;3081;50.584;7.032;2023-08-01T12:03:09;18.70;99.90
6102;DHT22;3081;50.584;7.032;2023-08-01T12:05:38;18.80;99.90
6102;DHT22;3081;50.584;7.032;2023-08-01T12:08:11;19.10;99.90
6102;DHT22;3081;50.584;7.032;2023-08-01T12:10:41;19.70;99.90
6102;DHT22;3081;50.584;7.032;2023-08-01T12:13:19;20.50;99.90
6102;DHT22;3081;50.584;7.032;2023-08-01T12:15:46;20.80;99.90
6102;DHT22;3081;50.584;7.032;2023-08-01T12:18:20;21.40;99.90
6102;DHT22;3081;50.584;7.032;2023-08-01T12:20:47;21.70;99.90
6102;DHT22;3081;50.584;7.032;2023-08-01T12:23:14;22.20;99.90
6102;DHT22;3081;50.584;7.032;2023-08-01T12:25:42;22.80;99.90
6102;DHT22;3081;50.584;7.032;2023-08-01T12:28:09;23.10;99.90
6102;DHT22;3081;50.584;7.032;2023-08-01T12:30:38;24.30;99.90
6102;DHT22;3081;50.584;7.032;2023-08-01T12:33:05;25.20;99.90
6102;DHT22;3081;50.584;7.032;2023-08-01T12:35:32;25.20;99.90
6102;DHT22;3081;50.584;7.032;2023-08-01T12:38:03;24.30;99.90
6102;DHT22;3081;50.584;7.032;2023-08-01T12:40:30;23.30;99.90
6102;DHT22;3081;50.584;7.032;2023-08-01T12:42:58;22.50;99.90
6102;DHT22;3081;50.584;7.032;2023-08-01T12:45:25;22.00;99.90
6102;DHT22;3081;50.584;7.032;2023-08-01T12:47:52;21.40;99.90
6102;DHT22;3081;50.584;7.032;2023-08-01T12:50:19;20.90;99.90
6102;DHT22;3081;50.584;7.032;2023-08-01T12:52:46;20.40;99.90
6102;DHT22;3081;50.584;7.032;2023-08-01T12:55:13;19.70;99.90
6102;DHT22;3081;50.584;7.032;2023-08-01T12:57:40;19.10;99.90
6102;DHT22;3081;50.584;7.032;2023-08-01T13:00:09;18.50;99.90
6102;DHT22;3081;50.584;7.032;2023-08-01T13:02:36;18.10;99.90
6102;DHT22;3081;50.584;7.032;2023-08-01T13:05:04;18.10;99.90
6102;DHT22;3081;50.584;7.032;2023-08-01T13:07:31;18.10;99.90
6102;DHT22;3081;50.584;7.032;2023-08-01T13:09:58;18.20;99.90
6102;DHT22;3081;50.584;7.032;2023-08-01T13:12:25;18.40;99.90
6102;DHT22;3081;50.584;7.032;2023-08-01T13:14:52;18.60;99.90
6102;DHT22;3081;50.584;7.032;2023-08-01T13:17:20;18.70;99.90
6102;DHT22;3081;50.584;7.032;2023-08-01T13:19:47;19.00;99.90
6102;DHT22;3081;50.584;7.032;2023-08-01T13:22:14;19.60;99.90
6102;DHT22;3081;50.584;7.032;2023-08-01T13:24:41;21.50;99.90
6102;DHT22;3081;50.584;7.032;2023-08-01T13:27:07;23.40;99.90
6102;DHT22;3081;50.584;7.032;2023-08-01T13:29:35;24.30;99.90
6102;DHT22;3081;50.584;7.032;2023-08-01T13:32:02;24.40;99.90
6102;DHT22;3081;50.584;7.032;2023-08-01T13:34:31;25.20;99.90
6102;DHT22;3081;50.584;7.032;2023-08-01T13:36:58;25.50;99.90
6102;DHT22;3081;50.584;7.032;2023-08-01T13:39:25;25.50;99.90
6102;DHT22;3081;50.584;7.032;2023-08-01T13:41:52;26.70;99.90
6102;DHT22;3081;50.584;7.032;2023-08-01T13:44:19;27.80;99.90
6102;DHT22;3081;50.584;7.032;2023-08-01T13:46:45;27.80;99.90
6102;DHT22;3081;50.584;7.032;2023-08-01T13:49:12;27.10;99.90
6102;DHT22;3081;50.584;7.032;2023-08-01T13:51:41;25.70;99.90
6102;DHT22;3081;50.584;7.032;2023-08-01T13:54:08;24.10;99.90
6102;DHT22;3081;50.584;7.032;2023-08-01T13:56:35;22.70;99.90
6102;DHT22;3081;50.584;7.032;2023-08-01T13:59:02;21.70;99.90
6102;DHT22;3081;50.584;7.032;2023-08-01T14:01:28;21.10;99.90
6102;DHT22;3081;50.584;7.032;2023-08-01T14:03:55;20.60;99.90
6102;DHT22;3081;50.584;7.032;2023-08-01T14:06:23;20.10;99.90
6102;DHT22;3081;50.584;7.032;2023-08-01T14:08:51;20.00;99.90
6102;DHT22;3081;50.584;7.032;2023-08-01T14:11:18;20.00;99.90
6102;DHT22;3081;50.584;7.032;2023-08-01T14:13:45;20.00;99.90
6102;DHT22;3081;50.584;7.032;2023-08-01T14:16:12;19.90;99.90
6102;DHT22;3081;50.584;7.032;2023-08-01T14:18:39;19.70;99.90
6102;DHT22;3081;50.584;7.032;2023-08-01T14:21:07;19.40;99.90
6102;DHT22;3081;50.584;7.032;2023-08-01T14:23:34;19.10;99.90
6102;DHT22;3081;50.584;7.032;2023-08-01T14:26:04;18.90;99.90
6102;DHT22;3081;50.584;7.032;2023-08-01T14:28:31;18.70;99.90
6102;DHT22;3081;50.584;7.032;2023-08-01T14:31:00;18.20;99.90
6102;DHT22;3081;50.584;7.032;2023-08-01T14:33:27;17.80;99.90
6102;DHT22;3081;50.584;7.032;2023-08-01T14:35:54;17.80;99.90
6102;DHT22;3081;50.584;7.032;2023-08-01T14:38:21;18.00;99.90
6102;DHT22;3081;50.584;7.032;2023-08-01T14:40:48;18.30;99.90
6102;DHT22;3081;50.584;7.032;2023-08-01T14:43:17;18.70;99.90
6102;DHT22;3081;50.584;7.032;2023-08-01T14:45:43;19.10;99.90
6102;DHT22;3081;50.584;7.032;2023-08-01T14:48:10;19.40;99.90
6102;DHT22;3081;50.584;7.032;2023-08-01T14:50:37;19.60;99.90
6102;DHT22;3081;50.584;7.032;2023-08-01T14:53:05;19.80;99.90
6102;DHT22;3081;50.584;7.032;2023-08-01T14:55:33;20.40;99.90
6102;DHT22;3081;50.584;7.032;2023-08-01T14:58:00;21.00;99.90
6102;DHT22;3081;50.584;7.032;2023-08-01T15:00:29;23.40;99.90
6102;DHT22;3081;50.584;7.032;2023-08-01T15:02:55;27.10;99.90
6102;DHT22;3081;50.584;7.032;2023-08-01T15:05:24;30.20;99.90
6102;DHT22;3081;50.584;7.032;2023-08-01T15:07:51;32.10;99.90
6102;DHT22;3081;50.584;7.032;2023-08-01T15:10:18;33.30;99.90
6102;DHT22;3081;50.584;7.032;2023-08-01T15:12:45;34.00;99.90
6102;DHT22;3081;50.584;7.032;2023-08-01T15:15:12;34.00;99.90
6102;DHT22;3081;50.584;7.032;2023-08-01T15:17:40;33.60;99.90
6102;DHT22;3081;50.584;7.032;2023-08-01T15:20:08;34.60;98.40
6102;DHT22;3081;50.584;7.032;2023-08-01T15:22:35;35.60;91.50
6102;DHT22;3081;50.584;7.032;2023-08-01T15:25:02;34.20;88.10
6102;DHT22;3081;50.584;7.032;2023-08-01T15:27:29;30.70;90.80
6102;DHT22;3081;50.584;7.032;2023-08-01T15:29:56;30.10;93.20
6102;DHT22;3081;50.584;7.032;2023-08-01T15:32:23;29.70;94.00
6102;DHT22;3081;50.584;7.032;2023-08-01T15:34:51;28.10;94.70
6102;DHT22;3081;50.584;7.032;2023-08-01T15:37:18;26.30;97.60
6102;DHT22;3081;50.584;7.032;2023-08-01T15:39:45;24.70;99.30
6102;DHT22;3081;50.584;7.032;2023-08-01T15:42:12;23.30;99.90
6102;DHT22;3081;50.584;7.032;2023-08-01T15:44:38;22.70;99.90
6102;DHT22;3081;50.584;7.032;2023-08-01T15:47:05;22.30;99.90
6102;DHT22;3081;50.584;7.032;2023-08-01T15:49:32;22.10;99.90
6102;DHT22;3081;50.584;7.032;2023-08-01T15:52:01;22.00;99.90
6102;DHT22;3081;50.584;7.032;2023-08-01T15:54:28;22.00;99.90
6102;DHT22;3081;50.584;7.032;2023-08-01T15:56:55;22.00;99.90
6102;DHT22;3081;50.584;7.032;2023-08-01T15:59:21;22.10;99.90
6102;DHT22;3081;50.584;7.032;2023-08-01T16:01:48;22.00;99.90
6102;DHT22;3081;50.584;7.032;2023-08-01T16:04:15;21.60;99.90